Walled Lake, Michigan
Current Conditions -  °F | °C
As of 3:53 AM on Monday 20 Oct 2014 (Local Time) from KPTK Reporting Station
Light Rain Light Rain  
Wind Chill:   Ceiling: 7500
Heat Index:   Visibility: 10mi
Dew Point:   Wind: 8mph
Humidity: 71%   Direction: 210°SSW
Pressure: 29.89"   Gusts: NA
Location:  42.54°N, 83.47°W
Report Text: KPTK 200753Z AUTO 21007KT 10SM -RA SCT050 OVC075 08/03 A2989 RMK AO2 RAE0658B17E28B44 SLP124 P0000 T00830033
Loading
Personal Weather Stations






























Interactive Weather Map
Tropical Storm Tracking
New forecast layout! Learn more

10-Day Weather Forecast

Advertisements
Track Severe Weather on mobile